sensor_id;sensor_type;location;lat;lon;timestamp;P1;durP1;ratioP1;P2;durP2;ratioP2
14817;SDS011;7500;57.698;11.986;2023-04-03T00:00:19;2.33;;;1.23;;
14817;SDS011;7500;57.698;11.986;2023-04-03T00:02:46;3.23;;;1.20;;
14817;SDS011;7500;57.698;11.986;2023-04-03T00:05:13;4.23;;;1.43;;
14817;SDS011;7500;57.698;11.986;2023-04-03T00:07:39;4.43;;;1.23;;
14817;SDS011;7500;57.698;11.986;2023-04-03T00:10:07;3.73;;;1.50;;
14817;SDS011;7500;57.698;11.986;2023-04-03T00:12:33;4.10;;;1.20;;
14817;SDS011;7500;57.698;11.986;2023-04-03T00:15:00;1.77;;;1.20;;
14817;SDS011;7500;57.698;11.986;2023-04-03T00:17:28;2.97;;;1.20;;
14817;SDS011;7500;57.698;11.986;2023-04-03T00:19:54;2.00;;;1.07;;
14817;SDS011;7500;57.698;11.986;2023-04-03T00:22:21;2.00;;;1.23;;
14817;SDS011;7500;57.698;11.986;2023-04-03T00:24:48;2.50;;;0.83;;
14817;SDS011;7500;57.698;11.986;2023-04-03T00:27:14;1.97;;;1.07;;
14817;SDS011;7500;57.698;11.986;2023-04-03T00:29:42;3.50;;;1.37;;
14817;SDS011;7500;57.698;11.986;2023-04-03T00:32:08;1.63;;;1.10;;
14817;SDS011;7500;57.698;11.986;2023-04-03T00:34:36;1.33;;;1.00;;
14817;SDS011;7500;57.698;11.986;2023-04-03T00:37:03;1.40;;;1.10;;
14817;SDS011;7500;57.698;11.986;2023-04-03T00:39:29;2.50;;;1.17;;
14817;SDS011;7500;57.698;11.986;2023-04-03T00:41:56;3.70;;;1.40;;
14817;SDS011;7500;57.698;11.986;2023-04-03T00:45:21;3.30;;;1.30;;
14817;SDS011;7500;57.698;11.986;2023-04-03T00:47:10;4.90;;;1.50;;
14817;SDS011;7500;57.698;11.986;2023-04-03T00:49:39;4.30;;;1.60;;
14817;SDS011;7500;57.698;11.986;2023-04-03T00:52:06;5.47;;;1.47;;
14817;SDS011;7500;57.698;11.986;2023-04-03T00:54:36;3.97;;;1.50;;
14817;SDS011;7500;57.698;11.986;2023-04-03T00:57:03;6.90;;;1.50;;
14817;SDS011;7500;57.698;11.986;2023-04-03T00:59:31;6.87;;;1.60;;
14817;SDS011;7500;57.698;11.986;2023-04-03T01:01:58;6.17;;;1.67;;
14817;SDS011;7500;57.698;11.986;2023-04-03T01:04:26;5.03;;;1.63;;
14817;SDS011;7500;57.698;11.986;2023-04-03T01:06:54;4.50;;;1.50;;
14817;SDS011;7500;57.698;11.986;2023-04-03T01:09:22;3.53;;;1.40;;
14817;SDS011;7500;57.698;11.986;2023-04-03T01:11:48;3.20;;;1.53;;
14817;SDS011;7500;57.698;11.986;2023-04-03T01:14:15;2.60;;;1.27;;
14817;SDS011;7500;57.698;11.986;2023-04-03T01:16:41;5.73;;;1.43;;
14817;SDS011;7500;57.698;11.986;2023-04-03T01:19:09;3.87;;;1.40;;
14817;SDS011;7500;57.698;11.986;2023-04-03T01:24:31;8.87;;;1.60;;
14817;SDS011;7500;57.698;11.986;2023-04-03T01:26:59;4.83;;;1.40;;
14817;SDS011;7500;57.698;11.986;2023-04-03T01:29:27;5.47;;;1.10;;
14817;SDS011;7500;57.698;11.986;2023-04-03T01:31:56;2.13;;;1.20;;
14817;SDS011;7500;57.698;11.986;2023-04-03T01:34:23;2.97;;;1.60;;
14817;SDS011;7500;57.698;11.986;2023-04-03T01:36:50;4.13;;;1.27;;
14817;SDS011;7500;57.698;11.986;2023-04-03T01:39:17;3.63;;;1.40;;
14817;SDS011;7500;57.698;11.986;2023-04-03T01:41:44;2.43;;;1.40;;
14817;SDS011;7500;57.698;11.986;2023-04-03T01:44:10;5.40;;;1.43;;
14817;SDS011;7500;57.698;11.986;2023-04-03T01:46:37;3.60;;;1.33;;
14817;SDS011;7500;57.698;11.986;2023-04-03T01:49:05;1.30;;;0.90;;
14817;SDS011;7500;57.698;11.986;2023-04-03T01:51:31;5.10;;;1.30;;
14817;SDS011;7500;57.698;11.986;2023-04-03T01:53:58;2.93;;;1.20;;
14817;SDS011;7500;57.698;11.986;2023-04-03T01:56:25;3.20;;;1.20;;
14817;SDS011;7500;57.698;11.986;2023-04-03T01:58:51;1.77;;;0.90;;
14817;SDS011;7500;57.698;11.986;2023-04-03T02:01:18;1.80;;;0.83;;
14817;SDS011;7500;57.698;11.986;2023-04-03T02:03:45;3.17;;;0.90;;
14817;SDS011;7500;57.698;11.986;2023-04-03T02:06:13;3.17;;;1.10;;
14817;SDS011;7500;57.698;11.986;2023-04-03T02:08:39;3.20;;;1.00;;
14817;SDS011;7500;57.698;11.986;2023-04-03T02:11:06;2.93;;;1.00;;
14817;SDS011;7500;57.698;11.986;2023-04-03T02:13:33;1.77;;;0.80;;
14817;SDS011;7500;57.698;11.986;2023-04-03T02:16:05;2.93;;;0.90;;
14817;SDS011;7500;57.698;11.986;2023-04-03T02:18:32;2.00;;;1.03;;
14817;SDS011;7500;57.698;11.986;2023-04-03T02:20:58;0.80;;;0.63;;
14817;SDS011;7500;57.698;11.986;2023-04-03T02:23:26;5.23;;;1.00;;
14817;SDS011;7500;57.698;11.986;2023-04-03T02:26:01;1.27;;;0.73;;
14817;SDS011;7500;57.698;11.986;2023-04-03T02:28:28;5.33;;;0.90;;
14817;SDS011;7500;57.698;11.986;2023-04-03T02:30:54;1.33;;;0.70;;
14817;SDS011;7500;57.698;11.986;2023-04-03T02:33:21;3.50;;;0.93;;
14817;SDS011;7500;57.698;11.986;2023-04-03T02:35:51;3.50;;;1.03;;
14817;SDS011;7500;57.698;11.986;2023-04-03T02:38:18;1.87;;;0.80;;
14817;SDS011;7500;57.698;11.986;2023-04-03T02:40:46;2.47;;;0.80;;
14817;SDS011;7500;57.698;11.986;2023-04-03T02:43:13;1.30;;;0.70;;
14817;SDS011;7500;57.698;11.986;2023-04-03T02:45:39;2.20;;;0.87;;
14817;SDS011;7500;57.698;11.986;2023-04-03T02:48:06;2.83;;;1.10;;
14817;SDS011;7500;57.698;11.986;2023-04-03T02:50:33;2.07;;;1.10;;
14817;SDS011;7500;57.698;11.986;2023-04-03T02:52:59;3.03;;;0.97;;
14817;SDS011;7500;57.698;11.986;2023-04-03T02:55:26;2.03;;;1.10;;
14817;SDS011;7500;57.698;11.986;2023-04-03T02:57:54;2.20;;;0.80;;
14817;SDS011;7500;57.698;11.986;2023-04-03T03:00:20;1.70;;;1.13;;
14817;SDS011;7500;57.698;11.986;2023-04-03T03:02:48;2.97;;;1.00;;
14817;SDS011;7500;57.698;11.986;2023-04-03T03:05:15;6.80;;;1.27;;
14817;SDS011;7500;57.698;11.986;2023-04-03T03:07:42;1.77;;;1.23;;
14817;SDS011;7500;57.698;11.986;2023-04-03T03:10:08;2.37;;;0.90;;
14817;SDS011;7500;57.698;11.986;2023-04-03T03:12:35;10.17;;;1.93;;
14817;SDS011;7500;57.698;11.986;2023-04-03T03:15:03;4.97;;;1.10;;
14817;SDS011;7500;57.698;11.986;2023-04-03T03:17:30;9.00;;;1.77;;
14817;SDS011;7500;57.698;11.986;2023-04-03T03:19:57;5.60;;;1.63;;
14817;SDS011;7500;57.698;11.986;2023-04-03T03:22:23;4.10;;;1.20;;
14817;SDS011;7500;57.698;11.986;2023-04-03T03:24:50;9.73;;;1.80;;
14817;SDS011;7500;57.698;11.986;2023-04-03T03:27:16;8.83;;;1.87;;
14817;SDS011;7500;57.698;11.986;2023-04-03T03:29:43;3.70;;;1.33;;
14817;SDS011;7500;57.698;11.986;2023-04-03T03:32:11;6.03;;;1.50;;
14817;SDS011;7500;57.698;11.986;2023-04-03T03:34:38;6.43;;;1.77;;
14817;SDS011;7500;57.698;11.986;2023-04-03T03:37:04;6.07;;;1.00;;
14817;SDS011;7500;57.698;11.986;2023-04-03T03:39:31;7.77;;;1.40;;
14817;SDS011;7500;57.698;11.986;2023-04-03T03:41:57;7.70;;;1.10;;
14817;SDS011;7500;57.698;11.986;2023-04-03T03:44:24;5.10;;;1.20;;
14817;SDS011;7500;57.698;11.986;2023-04-03T03:46:50;8.17;;;1.70;;
14817;SDS011;7500;57.698;11.986;2023-04-03T03:49:18;6.27;;;1.40;;
14817;SDS011;7500;57.698;11.986;2023-04-03T03:51:45;5.63;;;2.53;;
14817;SDS011;7500;57.698;11.986;2023-04-03T03:54:12;4.87;;;1.30;;
14817;SDS011;7500;57.698;11.986;2023-04-03T03:56:38;4.53;;;1.37;;
14817;SDS011;7500;57.698;11.986;2023-04-03T03:59:05;8.77;;;1.73;;
14817;SDS011;7500;57.698;11.986;2023-04-03T04:01:32;12.83;;;2.17;;
14817;SDS011;7500;57.698;11.986;2023-04-03T04:03:59;5.20;;;1.60;;
14817;SDS011;7500;57.698;11.986;2023-04-03T04:06:27;9.63;;;1.73;;
14817;SDS011;7500;57.698;11.986;2023-04-03T04:08:53;5.67;;;1.43;;
14817;SDS011;7500;57.698;11.986;2023-04-03T04:11:20;10.83;;;1.60;;
14817;SDS011;7500;57.698;11.986;2023-04-03T04:13:47;8.47;;;1.70;;
14817;SDS011;7500;57.698;11.986;2023-04-03T04:16:13;13.70;;;2.40;;
14817;SDS011;7500;57.698;11.986;2023-04-03T04:18:40;15.40;;;1.83;;
14817;SDS011;7500;57.698;11.986;2023-04-03T04:21:07;10.53;;;1.80;;
14817;SDS011;7500;57.698;11.986;2023-04-03T04:23:35;7.40;;;1.43;;
14817;SDS011;7500;57.698;11.986;2023-04-03T04:26:01;9.97;;;1.70;;
14817;SDS011;7500;57.698;11.986;2023-04-03T04:28:28;14.17;;;1.63;;
14817;SDS011;7500;57.698;11.986;2023-04-03T04:30:54;12.97;;;1.80;;
14817;SDS011;7500;57.698;11.986;2023-04-03T04:33:21;8.90;;;1.70;;
14817;SDS011;7500;57.698;11.986;2023-04-03T04:35:48;17.23;;;2.50;;
14817;SDS011;7500;57.698;11.986;2023-04-03T04:38:15;6.50;;;1.40;;
14817;SDS011;7500;57.698;11.986;2023-04-03T04:40:43;6.03;;;1.83;;
14817;SDS011;7500;57.698;11.986;2023-04-03T04:43:09;7.53;;;1.50;;
14817;SDS011;7500;57.698;11.986;2023-04-03T04:45:39;7.43;;;1.63;;
14817;SDS011;7500;57.698;11.986;2023-04-03T04:48:06;13.87;;;1.77;;
14817;SDS011;7500;57.698;11.986;2023-04-03T04:50:32;14.63;;;1.90;;
14817;SDS011;7500;57.698;11.986;2023-04-03T04:52:59;18.47;;;2.60;;
14817;SDS011;7500;57.698;11.986;2023-04-03T04:55:25;12.17;;;2.07;;
14817;SDS011;7500;57.698;11.986;2023-04-03T04:57:53;8.60;;;1.50;;
14817;SDS011;7500;57.698;11.986;2023-04-03T05:00:20;12.93;;;1.67;;
14817;SDS011;7500;57.698;11.986;2023-04-03T05:02:47;16.67;;;2.57;;
14817;SDS011;7500;57.698;11.986;2023-04-03T05:05:14;8.40;;;2.30;;
14817;SDS011;7500;57.698;11.986;2023-04-03T05:07:40;9.67;;;1.70;;
14817;SDS011;7500;57.698;11.986;2023-04-03T05:10:08;14.67;;;2.20;;
14817;SDS011;7500;57.698;11.986;2023-04-03T05:12:34;12.77;;;1.70;;
14817;SDS011;7500;57.698;11.986;2023-04-03T05:15:03;9.50;;;2.17;;
14817;SDS011;7500;57.698;11.986;2023-04-03T05:17:29;8.67;;;1.87;;
14817;SDS011;7500;57.698;11.986;2023-04-03T05:19:56;8.17;;;1.90;;
14817;SDS011;7500;57.698;11.986;2023-04-03T05:22:23;7.30;;;1.80;;
14817;SDS011;7500;57.698;11.986;2023-04-03T05:24:49;13.17;;;1.83;;
14817;SDS011;7500;57.698;11.986;2023-04-03T05:27:16;13.20;;;2.47;;
14817;SDS011;7500;57.698;11.986;2023-04-03T05:29:43;8.33;;;1.80;;
14817;SDS011;7500;57.698;11.986;2023-04-03T05:32:11;14.33;;;2.00;;
14817;SDS011;7500;57.698;11.986;2023-04-03T05:34:38;4.03;;;1.63;;
14817;SDS011;7500;57.698;11.986;2023-04-03T05:37:04;7.83;;;1.50;;
14817;SDS011;7500;57.698;11.986;2023-04-03T05:39:31;12.37;;;1.83;;
14817;SDS011;7500;57.698;11.986;2023-04-03T05:41:58;8.37;;;1.83;;
14817;SDS011;7500;57.698;11.986;2023-04-03T05:44:24;7.20;;;1.87;;
14817;SDS011;7500;57.698;11.986;2023-04-03T05:46:51;7.87;;;1.70;;
14817;SDS011;7500;57.698;11.986;2023-04-03T05:49:19;12.07;;;1.73;;
14817;SDS011;7500;57.698;11.986;2023-04-03T05:51:46;15.97;;;1.97;;
14817;SDS011;7500;57.698;11.986;2023-04-03T05:54:13;7.33;;;1.20;;
14817;SDS011;7500;57.698;11.986;2023-04-03T05:56:42;7.00;;;1.40;;
14817;SDS011;7500;57.698;11.986;2023-04-03T05:59:09;2.70;;;1.20;;
14817;SDS011;7500;57.698;11.986;2023-04-03T06:01:36;6.03;;;1.60;;
14817;SDS011;7500;57.698;11.986;2023-04-03T06:04:03;5.13;;;1.30;;
14817;SDS011;7500;57.698;11.986;2023-04-03T06:06:43;10.60;;;1.40;;
14817;SDS011;7500;57.698;11.986;2023-04-03T06:09:10;5.53;;;1.57;;
14817;SDS011;7500;57.698;11.986;2023-04-03T06:11:36;6.13;;;1.63;;
14817;SDS011;7500;57.698;11.986;2023-04-03T06:14:04;7.03;;;1.40;;
14817;SDS011;7500;57.698;11.986;2023-04-03T06:16:30;5.17;;;1.47;;
14817;SDS011;7500;57.698;11.986;2023-04-03T06:18:57;7.73;;;1.27;;
14817;SDS011;7500;57.698;11.986;2023-04-03T06:21:24;6.17;;;1.60;;
14817;SDS011;7500;57.698;11.986;2023-04-03T06:23:53;6.93;;;1.50;;
14817;SDS011;7500;57.698;11.986;2023-04-03T06:26:20;8.17;;;1.37;;
14817;SDS011;7500;57.698;11.986;2023-04-03T06:28:47;6.90;;;1.20;;
14817;SDS011;7500;57.698;11.986;2023-04-03T06:31:14;9.27;;;1.40;;
14817;SDS011;7500;57.698;11.986;2023-04-03T06:33:41;7.70;;;1.57;;
14817;SDS011;7500;57.698;11.986;2023-04-03T06:36:09;7.73;;;1.30;;
14817;SDS011;7500;57.698;11.986;2023-04-03T06:38:36;9.57;;;1.37;;
14817;SDS011;7500;57.698;11.986;2023-04-03T06:41:04;7.90;;;1.70;;
14817;SDS011;7500;57.698;11.986;2023-04-03T06:43:32;4.90;;;1.43;;
14817;SDS011;7500;57.698;11.986;2023-04-03T06:45:58;6.10;;;1.10;;
14817;SDS011;7500;57.698;11.986;2023-04-03T06:48:25;8.03;;;1.00;;
14817;SDS011;7500;57.698;11.986;2023-04-03T06:50:51;4.67;;;1.57;;
14817;SDS011;7500;57.698;11.986;2023-04-03T06:53:19;7.27;;;1.20;;
14817;SDS011;7500;57.698;11.986;2023-04-03T06:55:45;10.20;;;1.57;;
14817;SDS011;7500;57.698;11.986;2023-04-03T06:58:14;4.83;;;1.33;;
14817;SDS011;7500;57.698;11.986;2023-04-03T07:00:42;9.07;;;2.03;;
14817;SDS011;7500;57.698;11.986;2023-04-03T07:03:09;6.30;;;1.30;;
14817;SDS011;7500;57.698;11.986;2023-04-03T07:05:35;3.40;;;1.27;;
14817;SDS011;7500;57.698;11.986;2023-04-03T07:08:02;6.20;;;1.20;;
14817;SDS011;7500;57.698;11.986;2023-04-03T07:10:29;5.63;;;0.87;;
14817;SDS011;7500;57.698;11.986;2023-04-03T07:12:55;5.07;;;1.00;;
14817;SDS011;7500;57.698;11.986;2023-04-03T07:15:24;5.47;;;0.90;;
14817;SDS011;7500;57.698;11.986;2023-04-03T07:17:50;5.33;;;1.00;;
14817;SDS011;7500;57.698;11.986;2023-04-03T07:20:17;5.13;;;0.90;;
14817;SDS011;7500;57.698;11.986;2023-04-03T07:22:44;6.70;;;0.90;;
14817;SDS011;7500;57.698;11.986;2023-04-03T07:25:10;3.10;;;0.80;;
14817;SDS011;7500;57.698;11.986;2023-04-03T07:27:37;5.70;;;1.03;;
14817;SDS011;7500;57.698;11.986;2023-04-03T07:30:04;4.17;;;1.10;;
14817;SDS011;7500;57.698;11.986;2023-04-03T07:32:33;4.10;;;1.00;;
14817;SDS011;7500;57.698;11.986;2023-04-03T07:35:00;6.90;;;1.67;;
14817;SDS011;7500;57.698;11.986;2023-04-03T07:37:26;6.13;;;1.10;;
14817;SDS011;7500;57.698;11.986;2023-04-03T07:39:53;5.40;;;1.00;;
14817;SDS011;7500;57.698;11.986;2023-04-03T07:42:20;4.27;;;1.07;;
14817;SDS011;7500;57.698;11.986;2023-04-03T07:44:46;5.87;;;0.70;;
14817;SDS011;7500;57.698;11.986;2023-04-03T07:47:13;1.83;;;0.80;;
14817;SDS011;7500;57.698;11.986;2023-04-03T07:49:43;3.40;;;0.87;;
14817;SDS011;7500;57.698;11.986;2023-04-03T07:52:10;4.00;;;1.10;;
14817;SDS011;7500;57.698;11.986;2023-04-03T07:54:36;1.00;;;0.90;;
14817;SDS011;7500;57.698;11.986;2023-04-03T07:57:03;2.10;;;0.87;;
14817;SDS011;7500;57.698;11.986;2023-04-03T07:59:30;6.03;;;1.20;;
14817;SDS011;7500;57.698;11.986;2023-04-03T08:01:57;7.93;;;1.20;;
14817;SDS011;7500;57.698;11.986;2023-04-03T08:04:23;3.30;;;0.87;;
14817;SDS011;7500;57.698;11.986;2023-04-03T08:06:52;2.67;;;0.57;;
14817;SDS011;7500;57.698;11.986;2023-04-03T08:09:19;4.47;;;0.80;;
14817;SDS011;7500;57.698;11.986;2023-04-03T08:11:45;3.13;;;1.13;;
14817;SDS011;7500;57.698;11.986;2023-04-03T08:14:12;11.43;;;1.40;;
14817;SDS011;7500;57.698;11.986;2023-04-03T08:16:41;6.33;;;0.90;;
14817;SDS011;7500;57.698;11.986;2023-04-03T08:19:08;7.70;;;1.27;;
14817;SDS011;7500;57.698;11.986;2023-04-03T08:21:36;5.20;;;0.83;;
14817;SDS011;7500;57.698;11.986;2023-04-03T08:24:04;2.60;;;0.73;;
14817;SDS011;7500;57.698;11.986;2023-04-03T08:26:31;4.10;;;0.93;;
14817;SDS011;7500;57.698;11.986;2023-04-03T08:28:57;1.20;;;0.60;;
14817;SDS011;7500;57.698;11.986;2023-04-03T08:31:24;2.07;;;0.50;;
14817;SDS011;7500;57.698;11.986;2023-04-03T08:33:50;0.70;;;0.60;;
14817;SDS011;7500;57.698;11.986;2023-04-03T08:36:18;2.63;;;0.50;;
14817;SDS011;7500;57.698;11.986;2023-04-03T08:38:45;4.00;;;1.67;;
14817;SDS011;7500;57.698;11.986;2023-04-03T08:41:15;7.10;;;1.20;;
14817;SDS011;7500;57.698;11.986;2023-04-03T08:43:47;4.73;;;1.07;;
14817;SDS011;7500;57.698;11.986;2023-04-03T08:46:18;4.03;;;0.77;;
14817;SDS011;7500;57.698;11.986;2023-04-03T08:48:46;5.47;;;0.80;;
14817;SDS011;7500;57.698;11.986;2023-04-03T08:51:15;3.27;;;0.70;;
14817;SDS011;7500;57.698;11.986;2023-04-03T08:53:42;0.83;;;0.50;;
14817;SDS011;7500;57.698;11.986;2023-04-03T08:56:11;1.27;;;0.60;;
14817;SDS011;7500;57.698;11.986;2023-04-03T08:58:42;2.40;;;0.63;;
14817;SDS011;7500;57.698;11.986;2023-04-03T09:01:15;1.00;;;0.37;;
14817;SDS011;7500;57.698;11.986;2023-04-03T09:03:43;1.27;;;0.40;;
14817;SDS011;7500;57.698;11.986;2023-04-03T09:06:11;0.83;;;0.37;;
14817;SDS011;7500;57.698;11.986;2023-04-03T09:08:40;1.40;;;0.50;;
14817;SDS011;7500;57.698;11.986;2023-04-03T09:11:12;0.93;;;0.40;;
14817;SDS011;7500;57.698;11.986;2023-04-03T09:13:43;1.60;;;0.40;;
14817;SDS011;7500;57.698;11.986;2023-04-03T09:16:16;1.10;;;0.37;;
14817;SDS011;7500;57.698;11.986;2023-04-03T09:18:47;0.40;;;0.30;;
14817;SDS011;7500;57.698;11.986;2023-04-03T09:21:17;2.17;;;0.37;;
14817;SDS011;7500;57.698;11.986;2023-04-03T09:23:46;0.67;;;0.33;;
14817;SDS011;7500;57.698;11.986;2023-04-03T09:26:16;1.23;;;0.50;;
14817;SDS011;7500;57.698;11.986;2023-04-03T09:28:46;1.10;;;0.40;;
14817;SDS011;7500;57.698;11.986;2023-04-03T09:31:16;1.90;;;0.50;;
14817;SDS011;7500;57.698;11.986;2023-04-03T09:33:43;5.10;;;0.93;;
14817;SDS011;7500;57.698;11.986;2023-04-03T09:36:10;2.00;;;0.67;;
14817;SDS011;7500;57.698;11.986;2023-04-03T09:38:37;9.63;;;0.70;;
14817;SDS011;7500;57.698;11.986;2023-04-03T09:41:05;6.57;;;1.00;;
14817;SDS011;7500;57.698;11.986;2023-04-03T09:43:31;5.73;;;0.97;;
14817;SDS011;7500;57.698;11.986;2023-04-03T09:48:42;3.17;;;0.60;;
14817;SDS011;7500;57.698;11.986;2023-04-03T09:51:16;6.33;;;0.70;;
14817;SDS011;7500;57.698;11.986;2023-04-03T09:53:43;5.17;;;0.77;;
14817;SDS011;7500;57.698;11.986;2023-04-03T09:56:18;0.80;;;0.40;;
14817;SDS011;7500;57.698;11.986;2023-04-03T09:58:47;4.13;;;0.70;;
14817;SDS011;7500;57.698;11.986;2023-04-03T10:01:20;0.93;;;0.43;;
14817;SDS011;7500;57.698;11.986;2023-04-03T10:03:50;2.47;;;0.87;;
14817;SDS011;7500;57.698;11.986;2023-04-03T10:06:29;7.63;;;0.73;;
14817;SDS011;7500;57.698;11.986;2023-04-03T10:08:58;2.90;;;0.60;;
14817;SDS011;7500;57.698;11.986;2023-04-03T10:11:26;3.10;;;0.60;;
14817;SDS011;7500;57.698;11.986;2023-04-03T10:13:54;2.87;;;0.67;;
14817;SDS011;7500;57.698;11.986;2023-04-03T10:16:24;2.73;;;0.80;;
14817;SDS011;7500;57.698;11.986;2023-04-03T10:21:40;1.17;;;0.30;;
14817;SDS011;7500;57.698;11.986;2023-04-03T10:24:10;5.23;;;0.57;;
14817;SDS011;7500;57.698;11.986;2023-04-03T10:26:39;3.67;;;0.50;;
14817;SDS011;7500;57.698;11.986;2023-04-03T10:29:10;2.33;;;0.50;;
14817;SDS011;7500;57.698;11.986;2023-04-03T10:31:41;1.30;;;0.70;;
14817;SDS011;7500;57.698;11.986;2023-04-03T10:34:12;3.27;;;0.70;;
14817;SDS011;7500;57.698;11.986;2023-04-03T10:36:43;5.73;;;1.50;;
14817;SDS011;7500;57.698;11.986;2023-04-03T10:39:19;3.80;;;1.10;;
14817;SDS011;7500;57.698;11.986;2023-04-03T10:41:54;1.93;;;0.90;;
14817;SDS011;7500;57.698;11.986;2023-04-03T10:44:26;6.17;;;0.90;;
14817;SDS011;7500;57.698;11.986;2023-04-03T10:46:57;5.13;;;1.77;;
14817;SDS011;7500;57.698;11.986;2023-04-03T10:49:31;1.40;;;0.70;;
14817;SDS011;7500;57.698;11.986;2023-04-03T10:52:05;6.33;;;1.03;;
14817;SDS011;7500;57.698;11.986;2023-04-03T10:54:34;2.53;;;0.60;;
14817;SDS011;7500;57.698;11.986;2023-04-03T10:57:03;6.03;;;0.73;;
14817;SDS011;7500;57.698;11.986;2023-04-03T10:59:32;5.27;;;0.40;;
14817;SDS011;7500;57.698;11.986;2023-04-03T11:01:59;1.90;;;0.67;;
14817;SDS011;7500;57.698;11.986;2023-04-03T11:04:28;1.27;;;0.60;;
14817;SDS011;7500;57.698;11.986;2023-04-03T11:06:57;4.30;;;1.67;;
14817;SDS011;7500;57.698;11.986;2023-04-03T11:09:28;4.43;;;0.90;;
14817;SDS011;7500;57.698;11.986;2023-04-03T11:11:57;1.57;;;0.70;;
14817;SDS011;7500;57.698;11.986;2023-04-03T11:14:27;7.60;;;1.30;;
14817;SDS011;7500;57.698;11.986;2023-04-03T11:16:59;5.00;;;1.10;;
14817;SDS011;7500;57.698;11.986;2023-04-03T11:19:31;5.30;;;1.03;;
14817;SDS011;7500;57.698;11.986;2023-04-03T11:22:01;10.00;;;1.00;;
14817;SDS011;7500;57.698;11.986;2023-04-03T11:24:32;4.30;;;1.00;;
14817;SDS011;7500;57.698;11.986;2023-04-03T11:27:00;3.83;;;1.27;;
14817;SDS011;7500;57.698;11.986;2023-04-03T11:29:33;3.80;;;1.30;;
14817;SDS011;7500;57.698;11.986;2023-04-03T11:32:08;11.03;;;2.37;;
14817;SDS011;7500;57.698;11.986;2023-04-03T11:34:36;7.03;;;1.47;;
14817;SDS011;7500;57.698;11.986;2023-04-03T11:37:06;4.83;;;1.60;;
14817;SDS011;7500;57.698;11.986;2023-04-03T11:39:39;4.00;;;1.90;;
14817;SDS011;7500;57.698;11.986;2023-04-03T11:42:15;2.33;;;0.83;;
14817;SDS011;7500;57.698;11.986;2023-04-03T11:44:42;6.47;;;1.03;;
14817;SDS011;7500;57.698;11.986;2023-04-03T11:47:09;2.07;;;1.00;;
14817;SDS011;7500;57.698;11.986;2023-04-03T11:49:53;6.77;;;1.60;;
14817;SDS011;7500;57.698;11.986;2023-04-03T11:58:11;4.10;;;1.37;;
14817;SDS011;7500;57.698;11.986;2023-04-03T12:01:01;5.87;;;1.77;;
14817;SDS011;7500;57.698;11.986;2023-04-03T12:09:23;5.60;;;0.97;;
14817;SDS011;7500;57.698;11.986;2023-04-03T12:11:52;2.13;;;0.97;;
14817;SDS011;7500;57.698;11.986;2023-04-03T12:14:20;1.97;;;1.00;;
14817;SDS011;7500;57.698;11.986;2023-04-03T12:16:48;1.80;;;0.80;;
14817;SDS011;7500;57.698;11.986;2023-04-03T12:19:32;0.83;;;0.57;;
14817;SDS011;7500;57.698;11.986;2023-04-03T12:22:07;2.77;;;0.90;;
14817;SDS011;7500;57.698;11.986;2023-04-03T12:24:34;4.53;;;1.00;;
14817;SDS011;7500;57.698;11.986;2023-04-03T12:27:02;1.67;;;0.60;;
14817;SDS011;7500;57.698;11.986;2023-04-03T12:29:33;2.33;;;1.43;;
14817;SDS011;7500;57.698;11.986;2023-04-03T12:32:05;1.57;;;0.70;;
14817;SDS011;7500;57.698;11.986;2023-04-03T12:34:51;3.93;;;0.87;;
14817;SDS011;7500;57.698;11.986;2023-04-03T12:37:21;1.90;;;0.87;;
14817;SDS011;7500;57.698;11.986;2023-04-03T12:39:52;2.30;;;0.80;;
14817;SDS011;7500;57.698;11.986;2023-04-03T12:45:12;4.60;;;0.87;;
14817;SDS011;7500;57.698;11.986;2023-04-03T12:47:41;4.20;;;0.83;;
14817;SDS011;7500;57.698;11.986;2023-04-03T12:50:16;3.33;;;1.00;;
14817;SDS011;7500;57.698;11.986;2023-04-03T12:52:45;4.23;;;1.20;;
14817;SDS011;7500;57.698;11.986;2023-04-03T12:55:14;3.77;;;0.90;;
14817;SDS011;7500;57.698;11.986;2023-04-03T12:57:41;3.33;;;0.80;;
14817;SDS011;7500;57.698;11.986;2023-04-03T13:02:51;5.53;;;1.20;;
14817;SDS011;7500;57.698;11.986;2023-04-03T13:05:18;6.10;;;0.90;;
14817;SDS011;7500;57.698;11.986;2023-04-03T13:07:47;9.03;;;1.10;;
14817;SDS011;7500;57.698;11.986;2023-04-03T13:10:16;4.43;;;1.10;;
14817;SDS011;7500;57.698;11.986;2023-04-03T13:12:47;5.07;;;1.80;;
14817;SDS011;7500;57.698;11.986;2023-04-03T13:15:15;2.03;;;0.80;;
14817;SDS011;7500;57.698;11.986;2023-04-03T13:17:43;1.43;;;0.70;;
14817;SDS011;7500;57.698;11.986;2023-04-03T13:20:12;3.60;;;0.77;;
14817;SDS011;7500;57.698;11.986;2023-04-03T13:22:40;1.30;;;0.60;;
14817;SDS011;7500;57.698;11.986;2023-04-03T13:25:11;4.40;;;0.80;;
14817;SDS011;7500;57.698;11.986;2023-04-03T13:27:39;7.37;;;0.90;;
14817;SDS011;7500;57.698;11.986;2023-04-03T13:30:17;6.93;;;0.83;;
14817;SDS011;7500;57.698;11.986;2023-04-03T13:32:45;2.30;;;0.70;;
14817;SDS011;7500;57.698;11.986;2023-04-03T13:35:30;4.03;;;0.80;;
14817;SDS011;7500;57.698;11.986;2023-04-03T13:37:57;4.63;;;0.77;;
14817;SDS011;7500;57.698;11.986;2023-04-03T13:40:24;3.47;;;0.77;;
14817;SDS011;7500;57.698;11.986;2023-04-03T13:42:58;1.10;;;0.70;;
14817;SDS011;7500;57.698;11.986;2023-04-03T13:45:25;3.60;;;0.60;;
14817;SDS011;7500;57.698;11.986;2023-04-03T13:48:06;3.27;;;1.03;;
14817;SDS011;7500;57.698;11.986;2023-04-03T13:50:41;1.70;;;0.90;;
14817;SDS011;7500;57.698;11.986;2023-04-03T13:53:16;4.40;;;0.80;;
14817;SDS011;7500;57.698;11.986;2023-04-03T13:55:52;3.17;;;0.70;;
14817;SDS011;7500;57.698;11.986;2023-04-03T13:58:22;3.13;;;0.70;;
14817;SDS011;7500;57.698;11.986;2023-04-03T14:00:50;3.47;;;0.77;;
14817;SDS011;7500;57.698;11.986;2023-04-03T14:03:19;2.53;;;0.63;;
14817;SDS011;7500;57.698;11.986;2023-04-03T14:05:48;4.13;;;1.10;;
14817;SDS011;7500;57.698;11.986;2023-04-03T14:08:14;5.53;;;1.00;;
14817;SDS011;7500;57.698;11.986;2023-04-03T14:10:41;8.23;;;1.07;;
14817;SDS011;7500;57.698;11.986;2023-04-03T14:13:09;6.23;;;1.00;;
14817;SDS011;7500;57.698;11.986;2023-04-03T14:15:36;2.93;;;0.97;;
14817;SDS011;7500;57.698;11.986;2023-04-03T14:18:03;3.23;;;0.70;;
14817;SDS011;7500;57.698;11.986;2023-04-03T14:20:29;1.83;;;0.73;;
14817;SDS011;7500;57.698;11.986;2023-04-03T14:22:57;2.60;;;0.90;;
14817;SDS011;7500;57.698;11.986;2023-04-03T14:25:24;3.03;;;0.93;;
14817;SDS011;7500;57.698;11.986;2023-04-03T14:27:51;2.80;;;1.00;;
14817;SDS011;7500;57.698;11.986;2023-04-03T14:30:20;1.27;;;0.87;;
14817;SDS011;7500;57.698;11.986;2023-04-03T14:32:47;3.33;;;1.00;;
14817;SDS011;7500;57.698;11.986;2023-04-03T14:35:14;2.93;;;1.00;;
14817;SDS011;7500;57.698;11.986;2023-04-03T14:37:40;3.90;;;1.07;;
14817;SDS011;7500;57.698;11.986;2023-04-03T14:40:11;2.80;;;0.90;;
14817;SDS011;7500;57.698;11.986;2023-04-03T14:42:39;6.47;;;1.07;;
14817;SDS011;7500;57.698;11.986;2023-04-03T14:45:07;3.07;;;0.73;;
14817;SDS011;7500;57.698;11.986;2023-04-03T14:47:34;1.40;;;0.83;;
14817;SDS011;7500;57.698;11.986;2023-04-03T14:50:04;1.43;;;0.80;;
14817;SDS011;7500;57.698;11.986;2023-04-03T14:52:32;2.47;;;0.87;;
14817;SDS011;7500;57.698;11.986;2023-04-03T14:54:59;4.27;;;1.07;;
14817;SDS011;7500;57.698;11.986;2023-04-03T14:57:28;3.67;;;0.90;;
14817;SDS011;7500;57.698;11.986;2023-04-03T14:59:55;4.50;;;1.00;;
14817;SDS011;7500;57.698;11.986;2023-04-03T15:02:25;4.80;;;1.17;;
14817;SDS011;7500;57.698;11.986;2023-04-03T15:04:52;2.53;;;0.73;;
14817;SDS011;7500;57.698;11.986;2023-04-03T15:07:19;4.73;;;1.40;;
14817;SDS011;7500;57.698;11.986;2023-04-03T15:09:46;2.20;;;0.90;;
14817;SDS011;7500;57.698;11.986;2023-04-03T15:12:12;4.13;;;0.80;;
14817;SDS011;7500;57.698;11.986;2023-04-03T15:14:40;2.03;;;0.90;;
14817;SDS011;7500;57.698;11.986;2023-04-03T15:17:09;2.80;;;1.03;;